createdAt,value
2019-01-02T00:03:27.986Z,13.67
2019-01-02T00:06:09.778Z,15.57
2019-01-02T00:08:50.234Z,14.17
2019-01-02T00:11:30.937Z,14.93
2019-01-02T00:14:11.707Z,11.60
2019-01-02T00:16:52.414Z,13.70
2019-01-02T00:19:33.563Z,17.20
2019-01-02T00:22:14.479Z,12.93
2019-01-02T00:24:55.071Z,12.27
2019-01-02T00:27:36.007Z,10.50
2019-01-02T00:30:05.011Z,16.70
2019-01-02T00:32:33.880Z,8.20
2019-01-02T00:35:02.748Z,15.97
2019-01-02T00:37:51.570Z,19.13
2019-01-02T00:40:20.163Z,14.67
2019-01-02T00:42:49.888Z,11.67
2019-01-02T00:45:22.328Z,12.20
2019-01-02T00:51:16.226Z,13.10
2019-01-02T00:53:45.083Z,19.50
2019-01-02T00:56:14.170Z,19.30
2019-01-02T00:58:43.075Z,9.30
2019-01-02T01:25:41.010Z,14.23
2019-01-02T01:28:10.148Z,13.13
2019-01-02T01:30:38.758Z,15.00
2019-01-02T01:46:12.787Z,15.07
2019-01-02T01:49:19.249Z,15.60
2019-01-02T01:51:48.347Z,9.37
2019-01-02T01:54:17.196Z,18.40
2019-01-02T01:56:45.765Z,18.53
2019-01-02T01:59:15.144Z,13.57
2019-01-02T02:01:44.244Z,11.50
2019-01-02T02:04:12.861Z,12.07
2019-01-02T02:06:41.420Z,13.67
2019-01-02T02:09:10.055Z,18.03
2019-01-02T02:11:38.915Z,11.97
2019-01-02T02:14:07.759Z,20.07
2019-01-02T02:20:03.187Z,17.20
2019-01-02T02:22:53.343Z,18.47
2019-01-02T02:28:11.876Z,16.63
2019-01-02T02:30:59.777Z,14.40
2019-01-02T02:36:29.377Z,15.80
2019-01-02T02:39:19.067Z,14.70
2019-01-02T02:42:08.679Z,16.40
2019-01-02T02:44:58.350Z,15.93
2019-01-02T02:47:47.954Z,20.93
2019-01-02T02:50:38.340Z,16.23
2019-01-02T02:53:09.014Z,15.40
2019-01-02T02:55:58.639Z,13.97
2019-01-02T02:58:27.746Z,13.70
2019-01-02T03:00:58.030Z,19.80
2019-01-02T03:03:47.683Z,22.10
2019-01-02T03:06:37.261Z,13.63
2019-01-02T03:09:26.941Z,13.13
2019-01-02T03:12:14.890Z,15.93
2019-01-02T03:15:03.220Z,19.13
2019-01-02T03:17:51.110Z,15.33
2019-01-02T03:20:39.330Z,15.70
2019-01-02T03:23:27.751Z,16.67
2019-01-02T03:26:15.892Z,15.93
2019-01-02T03:28:44.783Z,15.50
2019-01-02T03:34:03.554Z,18.67
2019-01-02T03:36:51.704Z,14.33
2019-01-02T03:39:39.642Z,21.50
2019-01-02T03:42:27.772Z,16.20
2019-01-02T03:45:16.914Z,17.00
2019-01-02T03:48:05.090Z,13.70
2019-01-02T03:50:53.343Z,17.43
2019-01-02T03:53:41.291Z,15.90
2019-01-02T03:56:29.179Z,17.70
2019-01-02T03:59:17.678Z,13.73
2019-01-02T04:02:05.830Z,15.20
2019-01-02T04:04:54.094Z,17.10
2019-01-02T04:07:43.162Z,16.13
2019-01-02T04:10:31.070Z,17.37
2019-01-02T04:13:18.947Z,11.07
2019-01-02T04:16:06.850Z,17.13
2019-01-02T04:18:54.764Z,19.43
2019-01-02T04:21:42.681Z,13.30
2019-01-02T04:24:30.616Z,18.57
2019-01-02T04:27:18.504Z,11.73
2019-01-02T04:30:07.510Z,17.80
2019-01-02T04:32:55.642Z,13.60
2019-01-02T04:35:43.806Z,15.20
2019-01-02T04:38:31.769Z,16.20
2019-01-02T04:41:12.379Z,14.77
2019-01-02T04:43:53.758Z,15.73
2019-01-02T04:46:22.657Z,15.60
2019-01-02T04:48:51.217Z,22.80
2019-01-02T04:51:39.390Z,13.63
2019-01-02T04:54:27.519Z,9.90
2019-01-02T04:57:15.670Z,11.73
2019-01-02T05:00:04.470Z,14.90
2019-01-02T05:02:33.286Z,12.53
2019-01-02T05:05:21.453Z,12.83
2019-01-02T05:08:09.570Z,14.13
2019-01-02T05:10:57.499Z,12.33
2019-01-02T05:13:45.411Z,14.20
2019-01-02T05:16:33.322Z,11.57
2019-01-02T05:19:21.249Z,14.03
2019-01-02T05:22:09.439Z,15.90
2019-01-02T05:24:57.578Z,14.30
2019-01-02T05:27:45.491Z,13.00
2019-01-02T05:30:26.644Z,10.20
2019-01-02T05:32:55.523Z,9.80
2019-01-02T05:35:24.379Z,16.50
2019-01-02T08:23:20.253Z,10.60
2019-01-02T08:47:24.464Z,7.83
2019-01-02T08:50:21.675Z,5.90
2019-01-02T08:53:02.295Z,9.30
2019-01-02T08:56:09.742Z,7.23
2019-01-02T08:59:01.274Z,5.83
2019-01-02T09:02:08.523Z,9.93
2019-01-02T09:05:07.585Z,8.97
2019-01-02T09:08:14.861Z,7.17
2019-01-02T09:11:22.422Z,9.60
2019-01-02T09:14:18.920Z,4.43
2019-01-02T09:17:26.370Z,6.47
2019-01-02T09:20:33.581Z,6.87
2019-01-02T10:26:08.436Z,5.03
2019-01-02T10:42:11.189Z,10.70
2019-01-02T10:52:18.939Z,2.00
2019-01-02T10:55:42.306Z,5.83
2019-01-02T11:25:58.960Z,4.50
2019-01-02T11:29:06.427Z,5.30
2019-01-02T11:32:13.613Z,10.77
2019-01-02T11:35:20.842Z,9.50
2019-01-02T11:38:15.278Z,7.13
2019-01-02T11:41:22.775Z,11.30
2019-01-02T11:44:30.284Z,5.53
2019-01-02T11:47:18.507Z,5.47
2019-01-02T11:49:59.523Z,5.93
2019-01-02T11:52:40.643Z,5.73
2019-01-02T11:55:21.567Z,7.17
2019-01-02T11:58:02.271Z,11.90
2019-01-02T12:00:30.994Z,7.07
2019-01-02T12:33:37.303Z,3.17
2019-01-02T12:36:05.894Z,4.30
2019-01-02T12:43:09.513Z,12.23
2019-01-02T12:45:38.925Z,3.57
2019-01-02T12:51:29.695Z,3.03
2019-01-02T12:53:58.638Z,2.63
2019-01-02T12:56:27.218Z,2.30
2019-01-02T13:20:16.594Z,4.30
2019-01-02T13:23:06.840Z,6.40
2019-01-02T13:33:00.027Z,4.00
2019-01-02T13:39:08.014Z,4.97
2019-01-02T13:42:15.482Z,4.13
2019-01-02T13:45:10.422Z,6.20
2019-01-02T13:48:02.482Z,5.93
2019-01-02T13:50:43.619Z,5.07
2019-01-02T13:53:24.740Z,3.50
2019-01-02T13:56:06.091Z,3.37
2019-01-02T13:58:46.595Z,2.90
2019-01-02T14:01:27.795Z,6.03
2019-01-02T14:04:08.602Z,3.90
2019-01-02T14:06:49.254Z,4.17
2019-01-02T14:09:30.363Z,4.03
2019-01-02T14:12:11.704Z,5.50
2019-01-02T14:14:52.346Z,5.13
2019-01-02T14:17:32.942Z,3.97
2019-01-02T14:20:13.502Z,4.80
2019-01-02T14:22:54.135Z,5.60
2019-01-02T14:25:34.583Z,4.53
2019-01-02T14:28:15.514Z,4.40
2019-01-02T14:30:56.171Z,3.13
2019-01-02T14:33:36.537Z,5.83
2019-01-02T14:36:17.729Z,5.00
2019-01-02T14:38:58.291Z,2.90
2019-01-02T14:41:39.463Z,6.93
2019-01-02T14:44:20.444Z,5.97
2019-01-02T14:47:01.260Z,3.97
2019-01-02T14:49:41.633Z,4.03
2019-01-02T14:52:22.433Z,6.00
2019-01-02T14:55:03.064Z,2.90
2019-01-02T14:57:43.787Z,5.10
2019-01-02T15:00:25.080Z,3.23
2019-01-02T15:03:06.204Z,6.40
2019-01-02T15:05:46.600Z,5.20
2019-01-02T15:08:27.595Z,6.43
2019-01-02T15:11:08.454Z,4.57
2019-01-02T15:13:49.127Z,6.07
2019-01-02T15:16:29.874Z,4.33
2019-01-02T15:19:10.764Z,3.67
2019-01-02T15:21:51.656Z,7.37
2019-01-02T15:24:32.223Z,4.30
2019-01-02T15:27:13.087Z,4.20
2019-01-02T15:29:54.075Z,6.20
2019-01-02T15:32:34.758Z,3.23
2019-01-02T15:35:15.337Z,3.50
2019-01-02T15:37:56.055Z,3.43
2019-01-02T15:40:37.314Z,9.13
2019-01-02T15:43:17.899Z,4.47
2019-01-02T15:45:58.795Z,4.67
2019-01-02T15:48:39.859Z,3.10
2019-01-02T15:51:21.077Z,5.17
2019-01-02T15:54:02.094Z,4.17
2019-01-02T15:56:43.171Z,5.03
2019-01-02T15:59:24.327Z,4.13
2019-01-02T16:02:05.331Z,2.67
2019-01-02T16:04:46.385Z,2.50
2019-01-02T16:07:27.073Z,4.30
2019-01-02T16:10:08.149Z,3.50
2019-01-02T16:12:49.361Z,3.33
2019-01-02T16:15:29.968Z,3.80
2019-01-02T16:21:03.026Z,3.87
2019-01-02T16:23:31.858Z,1.93
2019-01-02T16:26:00.450Z,4.53
2019-01-02T16:28:29.061Z,3.37
2019-01-02T16:31:10.017Z,3.87
2019-01-02T16:36:42.723Z,6.33
2019-01-02T16:39:11.283Z,3.57
2019-01-02T16:41:40.426Z,3.40
2019-01-02T16:44:09.007Z,4.00
2019-01-02T16:46:57.521Z,3.20
2019-01-02T16:49:26.386Z,3.50
2019-01-02T16:51:55.353Z,3.47
2019-01-02T16:55:01.055Z,3.63
2019-01-02T16:57:56.400Z,2.97
2019-01-02T17:00:25.293Z,2.10
2019-01-02T17:05:50.431Z,3.77
2019-01-02T17:08:23.653Z,3.37
2019-01-02T17:17:48.480Z,8.30
2019-01-02T17:34:29.957Z,3.30
2019-01-02T17:36:58.585Z,6.10
2019-01-02T17:39:27.727Z,4.17
2019-01-02T17:41:56.827Z,4.00
2019-01-02T17:58:44.515Z,4.37
2019-01-02T18:04:04.395Z,4.60
2019-01-02T18:06:33.622Z,5.80
2019-01-02T18:09:02.841Z,5.60
2019-01-02T18:11:32.119Z,3.50
2019-01-02T18:14:01.143Z,10.13
2019-01-02T18:16:30.109Z,5.10
2019-01-02T18:23:22.507Z,2.60
2019-01-02T18:25:51.366Z,5.50
2019-01-02T18:28:20.002Z,4.03
2019-01-02T18:31:43.662Z,6.53
2019-01-02T18:39:54.012Z,4.73
2019-01-02T18:43:17.493Z,2.30
2019-01-02T18:45:51.591Z,2.67
2019-01-02T18:49:15.133Z,3.27
2019-01-02T18:55:24.848Z,4.40
2019-01-02T18:58:13.149Z,3.63
2019-01-02T19:00:42.313Z,5.97
2019-01-02T19:03:49.061Z,4.30
2019-01-02T19:09:47.569Z,5.83
2019-01-02T19:15:34.707Z,6.33
2019-01-02T19:18:15.879Z,3.27
2019-01-02T19:20:56.978Z,2.50
2019-01-02T19:23:37.981Z,3.60
2019-01-02T19:26:19.223Z,6.30
2019-01-02T19:29:00.807Z,9.70
2019-01-02T19:31:42.041Z,5.13
2019-01-02T19:34:22.635Z,3.57
2019-01-02T19:37:03.926Z,7.50
2019-01-02T19:39:44.829Z,7.97
2019-01-02T19:42:25.863Z,5.70
2019-01-02T19:45:06.831Z,2.77
2019-01-02T19:47:47.810Z,7.17
2019-01-02T19:50:28.713Z,3.03
2019-01-02T19:53:09.413Z,5.07
2019-01-02T19:55:50.197Z,7.00
2019-01-02T19:58:30.956Z,7.13
2019-01-02T20:00:59.576Z,5.70
2019-01-02T20:03:47.478Z,3.40
2019-01-02T20:06:35.402Z,6.90
2019-01-02T20:09:23.271Z,2.90
2019-01-02T20:12:04.499Z,4.90
2019-01-02T20:14:45.430Z,4.17
2019-01-02T20:17:26.269Z,4.30
2019-01-02T20:20:07.763Z,6.73
2019-01-02T20:22:48.533Z,9.00
2019-01-02T20:25:29.164Z,16.97
2019-01-02T20:28:09.834Z,14.70
2019-01-02T20:30:50.601Z,16.17
2019-01-02T20:33:31.397Z,18.50
2019-01-02T20:36:12.040Z,21.97
2019-01-02T20:38:53.004Z,15.00
2019-01-02T20:41:33.939Z,17.50
2019-01-02T20:44:14.823Z,20.13
2019-01-02T20:46:44.000Z,21.10
2019-01-02T20:49:32.139Z,25.37
2019-01-02T20:52:20.026Z,37.30
2019-01-02T20:55:08.059Z,36.80
2019-01-02T20:57:56.254Z,41.50
2019-01-02T21:00:44.595Z,40.87
2019-01-02T21:03:32.859Z,50.83
2019-01-02T21:06:01.499Z,46.60
